Time;durP1;ratioP1;P1;durP2;ratioP2;P2;SDS_P1;SDS_P2;PMS_P1;PMS_P2;Temp;Humidity;BMP_temperature;BMP_pressure;BME280_temperature;BME280_humidity;BME280_pressure;Samples;Min_cycle;Max_cycle;Signal;HPM_P1;HPM_P2
2021/05/26 00:00:20;;;;;;;18.27;5.13;;;11.60;99.90;;;;;;5061176;28;20032;-78
2021/05/26 00:02:46;;;;;;;17.30;5.45;;;11.60;99.90;;;;;;5057901;28;20036;-78
2021/05/26 00:05:12;;;;;;;14.35;4.88;;;11.60;99.90;;;;;;5058073;28;20036;-78
2021/05/26 00:07:38;;;;;;;18.92;5.63;;;11.70;99.90;;;;;;5065103;28;20086;-77
2021/05/26 00:10:05;;;;;;;16.90;5.10;;;11.60;99.90;;;;;;5063475;28;20025;-78
2021/05/26 00:12:31;;;;;;;18.08;6.13;;;11.70;99.90;;;;;;5060692;28;20483;-76
2021/05/26 00:14:56;;;;;;;17.35;5.07;;;11.60;99.90;;;;;;5057682;28;20158;-77
2021/05/26 00:17:22;;;;;;;11.70;4.68;;;11.60;99.90;;;;;;5064231;28;20046;-76
2021/05/26 00:19:48;;;;;;;21.48;5.20;;;11.60;99.90;;;;;;5067297;28;20079;-75
2021/05/26 00:22:14;;;;;;;22.52;5.88;;;11.60;99.90;;;;;;5063797;28;20021;-78
2021/05/26 00:24:40;;;;;;;13.93;5.22;;;11.70;99.90;;;;;;5066767;28;20025;-78
2021/05/26 00:27:06;;;;;;;17.58;4.78;;;11.70;99.90;;;;;;5058276;28;20025;-76
2021/05/26 00:29:32;;;;;;;16.60;5.55;;;11.70;99.90;;;;;;5065961;28;20028;-76
2021/05/26 00:31:58;;;;;;;17.23;5.13;;;11.80;99.90;;;;;;5063530;28;20024;-78
2021/05/26 00:34:23;;;;;;;15.90;5.10;;;11.70;99.90;;;;;;5061997;28;20032;-78
2021/05/26 00:36:49;;;;;;;17.08;5.05;;;11.70;99.90;;;;;;5061734;28;20037;-78
2021/05/26 00:39:15;;;;;;;25.42;6.00;;;11.60;99.90;;;;;;5065016;28;20024;-77
2021/05/26 00:41:41;;;;;;;23.48;5.95;;;11.60;99.90;;;;;;5052911;28;20025;-78
2021/05/26 00:44:07;;;;;;;15.75;5.53;;;11.60;99.90;;;;;;5064556;28;20043;-76
2021/05/26 00:46:40;;;;;;;14.18;4.97;;;11.60;99.90;;;;;;5056092;28;20021;-76
2021/05/26 00:49:06;;;;;;;19.13;5.55;;;11.60;99.90;;;;;;5057393;28;20037;-78
2021/05/26 00:51:31;;;;;;;25.20;6.45;;;11.70;99.90;;;;;;5060353;28;20032;-78
2021/05/26 00:53:57;;;;;;;16.90;5.05;;;11.70;99.90;;;;;;5065364;28;20024;-78
2021/05/26 00:56:23;;;;;;;18.55;6.40;;;11.70;99.90;;;;;;5060170;28;20052;-77
2021/05/26 00:58:48;;;;;;;30.20;5.43;;;11.60;99.90;;;;;;5063907;28;20043;-78
2021/05/26 01:01:14;;;;;;;19.35;5.32;;;11.70;99.90;;;;;;5060787;28;20040;-77
2021/05/26 01:03:40;;;;;;;25.73;6.10;;;11.70;99.90;;;;;;5063246;28;20024;-78
2021/05/26 01:06:06;;;;;;;21.25;5.68;;;11.70;99.90;;;;;;5063452;28;20029;-77
2021/05/26 01:08:32;;;;;;;14.18;5.63;;;11.60;99.90;;;;;;5056972;28;20029;-77
2021/05/26 01:10:57;;;;;;;17.90;6.38;;;11.60;99.90;;;;;;5061064;28;20086;-77
2021/05/26 01:13:25;;;;;;;24.88;6.45;;;11.60;99.90;;;;;;5062364;28;20027;-78
2021/05/26 01:15:50;;;;;;;19.23;5.55;;;11.50;99.90;;;;;;5062442;28;20017;-78
2021/05/26 01:18:30;;;;;;;18.58;6.60;;;11.50;99.90;;;;;;5067212;28;20059;-76
2021/05/26 01:20:58;;;;;;;17.92;5.57;;;11.50;99.90;;;;;;5064525;28;20489;-78
2021/05/26 01:23:24;;;;;;;18.58;5.55;;;11.50;99.90;;;;;;5058572;28;20024;-77
2021/05/26 01:25:55;;;;;;;13.98;5.90;;;11.50;99.90;;;;;;5062306;28;20024;-77
2021/05/26 01:28:22;;;;;;;22.50;5.88;;;11.50;99.90;;;;;;5065123;28;20426;-77
2021/05/26 01:30:48;;;;;;;18.25;5.95;;;11.40;99.90;;;;;;5063400;28;20105;-76
2021/05/26 01:33:17;;;;;;;22.58;6.43;;;11.40;99.90;;;;;;5064708;28;20017;-77
2021/05/26 01:35:45;;;;;;;24.35;6.55;;;11.40;99.90;;;;;;5062855;28;20029;-77
2021/05/26 01:38:15;;;;;;;23.30;6.70;;;11.30;99.90;;;;;;5066189;28;20021;-77
2021/05/26 01:40:41;;;;;;;17.55;5.57;;;11.30;99.90;;;;;;5061820;28;20373;-77
2021/05/26 01:43:07;;;;;;;21.27;5.45;;;11.30;99.90;;;;;;5055173;28;20029;-78
2021/05/26 01:45:33;;;;;;;20.40;5.05;;;11.30;99.90;;;;;;5065464;28;20086;-78
2021/05/26 01:47:58;;;;;;;18.15;5.28;;;11.30;99.90;;;;;;5060841;28;20452;-78
2021/05/26 01:50:24;;;;;;;20.50;5.85;;;11.30;99.90;;;;;;5063598;28;20090;-78
2021/05/26 01:52:53;;;;;;;20.13;5.22;;;11.30;99.90;;;;;;5071185;28;20056;-78
2021/05/26 01:55:19;;;;;;;19.92;6.13;;;11.30;99.90;;;;;;5060253;28;20017;-78
2021/05/26 01:57:45;;;;;;;14.88;4.95;;;11.30;99.90;;;;;;5065427;28;20109;-77
2021/05/26 02:00:13;;;;;;;20.52;5.78;;;11.30;99.90;;;;;;5061065;28;20056;-77
2021/05/26 02:02:40;;;;;;;15.13;6.05;;;11.30;99.90;;;;;;5061297;28;20021;-77
2021/05/26 02:05:07;;;;;;;16.63;5.25;;;11.30;99.90;;;;;;5066211;28;20047;-77
2021/05/26 02:07:33;;;;;;;21.95;6.50;;;11.30;99.90;;;;;;5062430;28;20462;-78
2021/05/26 02:09:59;;;;;;;25.00;7.20;;;11.20;99.90;;;;;;5054443;28;20122;-78
2021/05/26 02:12:32;;;;;;;16.58;5.80;;;11.20;99.90;;;;;;5055981;28;20037;-78
2021/05/26 02:14:58;;;;;;;;;;;11.20;99.90;;;;;;5055665;28;20041;-77
2021/05/26 02:17:24;;;;;;;14.77;5.50;;;11.10;99.90;;;;;;5062658;28;20002;-78
2021/05/26 02:19:50;;;;;;;17.13;6.10;;;11.20;99.90;;;;;;5064734;28;20052;-78
2021/05/26 02:22:16;;;;;;;29.00;6.72;;;11.10;99.90;;;;;;5055122;28;20055;-78
2021/05/26 02:24:42;;;;;;;23.20;6.28;;;11.00;99.90;;;;;;5066776;28;20021;-78
2021/05/26 02:27:08;;;;;;;18.33;6.40;;;11.00;99.90;;;;;;5054882;28;20048;-78
2021/05/26 02:29:34;;;;;;;20.98;7.10;;;11.00;99.90;;;;;;5055351;28;20075;-78
2021/05/26 02:32:01;;;;;;;20.48;7.00;;;10.90;99.90;;;;;;5065748;28;20032;-78
2021/05/26 02:34:26;;;;;;;23.33;6.50;;;10.90;99.90;;;;;;5061182;28;20025;-79
2021/05/26 02:36:52;;;;;;;23.98;8.25;;;10.80;99.90;;;;;;5060816;28;20070;-78
2021/05/26 02:39:18;;;;;;;21.35;6.50;;;10.90;99.90;;;;;;5059059;28;20380;-79
2021/05/26 02:41:43;;;;;;;25.13;6.90;;;10.90;99.90;;;;;;5062741;28;20546;-78
2021/05/26 02:44:10;;;;;;;22.50;6.57;;;10.80;99.90;;;;;;5060664;28;20031;-78
2021/05/26 02:46:36;;;;;;;19.70;6.07;;;10.70;99.90;;;;;;5061355;28;20025;-79
2021/05/26 02:49:04;;;;;;;21.63;7.30;;;10.70;99.90;;;;;;5058211;28;20115;-78
2021/05/26 02:51:30;;;;;;;19.65;6.47;;;10.60;99.90;;;;;;5064534;28;20032;-80
2021/05/26 02:53:55;;;;;;;24.58;6.88;;;10.60;99.90;;;;;;5068937;28;20035;-78
2021/05/26 02:56:21;;;;;;;18.33;7.07;;;10.60;99.90;;;;;;5057256;28;20029;-79
2021/05/26 02:58:47;;;;;;;22.55;8.00;;;10.70;99.90;;;;;;5071199;28;20038;-78
2021/05/26 03:01:12;;;;;;;17.40;7.00;;;10.70;99.90;;;;;;5065526;28;20082;-79
2021/05/26 03:03:38;;;;;;;21.73;7.00;;;10.80;99.90;;;;;;5067627;28;20059;-78
2021/05/26 03:06:04;;;;;;;16.23;7.05;;;10.70;99.90;;;;;;5067881;28;20027;-78
2021/05/26 03:08:30;;;;;;;23.23;7.75;;;10.80;99.90;;;;;;5055112;28;20440;-78
2021/05/26 03:10:58;;;;;;;18.83;7.05;;;10.90;99.90;;;;;;5057467;28;20541;-78
2021/05/26 03:13:24;;;;;;;25.13;7.45;;;10.80;99.90;;;;;;5058514;28;20381;-78
2021/05/26 03:15:51;;;;;;;20.23;7.20;;;10.80;99.90;;;;;;5067197;28;20020;-78
2021/05/26 03:18:17;;;;;;;24.00;7.28;;;10.80;99.90;;;;;;5059393;28;20055;-78
2021/05/26 03:20:42;;;;;;;16.50;7.35;;;10.90;99.90;;;;;;5058886;28;20033;-78
2021/05/26 03:23:08;;;;;;;19.13;6.22;;;10.90;99.90;;;;;;5058605;28;20028;-79
2021/05/26 03:25:34;;;;;;;21.45;6.78;;;10.90;99.90;;;;;;5063355;28;20036;-78
2021/05/26 03:27:59;;;;;;;19.00;7.00;;;10.90;99.90;;;;;;5061080;28;20024;-79
2021/05/26 03:30:25;;;;;;;19.10;7.00;;;10.90;99.90;;;;;;5071813;28;20049;-78
2021/05/26 03:32:52;;;;;;;27.88;7.78;;;10.90;99.90;;;;;;5060275;28;20019;-79
2021/05/26 03:35:18;;;;;;;23.05;6.80;;;10.90;99.90;;;;;;5058101;28;20504;-79
2021/05/26 03:37:44;;;;;;;20.35;7.63;;;10.90;99.90;;;;;;5061389;28;20048;-79
2021/05/26 03:40:12;;;;;;;21.45;6.78;;;10.80;99.90;;;;;;5068482;28;20017;-79
2021/05/26 03:42:38;;;;;;;18.75;7.75;;;10.80;99.90;;;;;;5054862;28;20059;-80
2021/05/26 03:45:07;;;;;;;17.65;7.50;;;10.80;99.90;;;;;;5064790;28;20021;-79
2021/05/26 03:47:33;;;;;;;20.90;7.15;;;10.80;99.90;;;;;;5062712;28;20016;-78
2021/05/26 03:49:59;;;;;;;21.85;8.40;;;10.80;99.90;;;;;;5058724;28;20056;-79
2021/05/26 03:52:25;;;;;;;16.88;7.75;;;10.80;99.90;;;;;;5055445;28;20063;-78
2021/05/26 03:54:50;;;;;;;21.92;7.75;;;10.80;99.90;;;;;;5063293;28;20032;-78
2021/05/26 03:57:16;;;;;;;20.05;7.90;;;10.80;99.90;;;;;;5069690;28;20014;-78
2021/05/26 03:59:41;;;;;;;21.48;6.60;;;10.80;99.90;;;;;;5059443;28;20477;-79
2021/05/26 04:02:07;;;;;;;17.73;8.00;;;10.80;99.90;;;;;;5065762;28;20056;-79
2021/05/26 04:04:34;;;;;;;20.17;7.55;;;10.90;99.90;;;;;;5059557;28;20681;-77
2021/05/26 04:06:59;;;;;;;19.77;7.82;;;10.80;99.90;;;;;;5061113;28;20056;-80
2021/05/26 04:09:25;;;;;;;23.27;7.30;;;10.90;99.90;;;;;;5065870;28;20508;-80
2021/05/26 04:11:50;;;;;;;20.40;7.50;;;10.90;99.90;;;;;;5064067;28;20095;-80
2021/05/26 04:14:16;;;;;;;17.58;6.78;;;10.90;99.90;;;;;;5057062;28;20055;-79
2021/05/26 04:16:42;;;;;;;17.27;6.28;;;11.00;99.90;;;;;;5065932;28;20044;-79
2021/05/26 04:19:07;;;;;;;13.85;6.95;;;11.10;99.90;;;;;;5055994;28;20108;-80
2021/05/26 04:21:33;;;;;;;16.92;7.80;;;11.10;99.90;;;;;;5065886;28;20489;-79
2021/05/26 04:24:02;;;;;;;18.65;7.18;;;11.10;99.90;;;;;;5068443;28;20035;-79
2021/05/26 04:26:28;;;;;;;15.98;5.75;;;11.10;99.90;;;;;;5067704;28;20422;-80
2021/05/26 04:28:54;;;;;;;18.00;6.32;;;11.10;99.90;;;;;;5064902;28;20160;-79
2021/05/26 04:31:20;;;;;;;21.63;6.88;;;11.10;99.90;;;;;;5065116;28;20032;-79
2021/05/26 04:33:45;;;;;;;18.02;6.40;;;11.20;99.90;;;;;;5068624;28;20064;-79
2021/05/26 04:36:11;;;;;;;19.55;6.60;;;11.20;99.90;;;;;;5060592;28;20052;-79
2021/05/26 04:38:37;;;;;;;19.80;6.00;;;11.20;99.90;;;;;;5065876;28;20115;-79
2021/05/26 04:41:05;;;;;;;17.90;5.45;;;11.20;99.90;;;;;;5065861;28;20056;-77
2021/05/26 04:43:31;;;;;;;11.65;5.75;;;11.20;99.90;;;;;;5061223;28;20030;-78
2021/05/26 04:45:56;;;;;;;13.70;5.40;;;11.30;99.90;;;;;;5062882;28;20099;-79
2021/05/26 04:48:23;;;;;;;14.00;5.28;;;11.40;99.90;;;;;;5064510;28;20040;-79
2021/05/26 04:50:48;;;;;;;12.98;5.07;;;11.40;99.90;;;;;;5060772;28;20045;-79
2021/05/26 04:53:14;;;;;;;10.38;4.72;;;11.40;99.90;;;;;;5061514;28;20089;-78
2021/05/26 04:55:40;;;;;;;11.60;5.22;;;11.40;99.90;;;;;;5066039;28;20103;-77
2021/05/26 04:58:08;;;;;;;8.25;4.70;;;11.40;99.90;;;;;;5059391;28;20031;-78
2021/05/26 05:00:34;;;;;;;10.90;4.47;;;11.50;99.90;;;;;;5070832;28;20029;-78
2021/05/26 05:03:00;;;;;;;12.10;4.90;;;11.50;99.90;;;;;;5061830;28;20078;-78
2021/05/26 05:05:32;;;;;;;12.80;5.40;;;11.50;99.90;;;;;;5066596;28;20533;-79
2021/05/26 05:08:02;;;;;;;8.93;4.10;;;11.50;99.90;;;;;;5069818;28;20025;-78
2021/05/26 05:10:28;;;;;;;10.68;4.25;;;11.40;99.90;;;;;;5064560;28;20037;-79
2021/05/26 05:12:54;;;;;;;9.43;4.10;;;11.40;99.90;;;;;;5064399;28;20025;-78
2021/05/26 05:15:20;;;;;;;12.13;5.35;;;11.50;99.90;;;;;;5058140;28;20035;-78
2021/05/26 05:17:49;;;;;;;11.35;4.45;;;11.50;99.90;;;;;;5066750;28;20378;-77
2021/05/26 05:20:19;;;;;;;9.15;4.30;;;11.50;99.90;;;;;;5070697;28;20496;-77
2021/05/26 05:22:45;;;;;;;11.50;5.05;;;11.60;99.90;;;;;;5061189;28;20051;-78
2021/05/26 05:25:11;;;;;;;12.32;4.43;;;11.60;99.90;;;;;;5064523;28;20378;-77
2021/05/26 05:27:37;;;;;;;9.82;4.85;;;11.70;99.90;;;;;;5068384;28;20024;-77
2021/05/26 05:30:07;;;;;;;10.45;4.80;;;11.70;99.90;;;;;;5073786;28;20043;-78
2021/05/26 05:32:33;;;;;;;16.33;4.70;;;11.80;99.90;;;;;;5060133;28;20116;-77
2021/05/26 05:34:59;;;;;;;16.08;4.80;;;11.80;99.90;;;;;;5066662;28;20108;-78
2021/05/26 05:37:25;;;;;;;11.70;5.10;;;11.90;99.90;;;;;;5070584;28;20476;-79
2021/05/26 05:39:51;;;;;;;10.95;5.03;;;11.90;99.90;;;;;;5064827;28;20527;-78
2021/05/26 05:42:18;;;;;;;11.85;4.68;;;11.80;99.90;;;;;;5060327;28;20044;-77
2021/05/26 05:44:44;;;;;;;15.10;5.95;;;11.90;99.90;;;;;;5063088;28;20099;-78
2021/05/26 05:47:09;;;;;;;14.10;5.68;;;11.80;99.90;;;;;;5059333;28;20115;-79
2021/05/26 05:49:35;;;;;;;13.85;5.40;;;11.80;99.90;;;;;;5058677;28;20107;-80
2021/05/26 05:52:00;;;;;;;15.57;5.93;;;11.90;99.90;;;;;;5057982;28;20404;-80
2021/05/26 05:54:26;;;;;;;9.93;4.93;;;11.90;99.90;;;;;;5059383;28;20021;-79
2021/05/26 05:56:52;;;;;;;13.57;5.75;;;11.90;99.90;;;;;;5074824;28;20095;-79
2021/05/26 05:59:17;;;;;;;15.90;6.20;;;11.90;99.90;;;;;;5062164;28;20044;-79
2021/05/26 06:01:43;;;;;;;9.82;5.20;;;12.00;99.90;;;;;;5060444;28;20065;-79
2021/05/26 06:04:09;;;;;;;8.38;4.43;;;12.00;99.90;;;;;;5058175;28;20029;-80
2021/05/26 06:06:34;;;;;;;8.40;4.13;;;12.10;99.90;;;;;;5057775;28;20029;-80
2021/05/26 06:09:00;;;;;;;6.72;4.50;;;12.10;99.90;;;;;;5061459;28;20024;-78
2021/05/26 06:11:26;;;;;;;5.47;3.42;;;12.10;99.90;;;;;;5051636;28;20047;-79
2021/05/26 06:13:52;;;;;;;6.32;3.10;;;12.10;99.90;;;;;;5066457;28;20024;-79
2021/05/26 06:16:18;;;;;;;7.28;3.22;;;12.10;99.90;;;;;;5071257;28;20025;-79
2021/05/26 06:18:43;;;;;;;5.78;3.97;;;12.20;99.90;;;;;;5058141;28;20025;-81
2021/05/26 06:21:09;;;;;;;6.65;3.67;;;12.30;99.90;;;;;;5054653;28;20048;-78
2021/05/26 06:23:35;;;;;;;4.40;3.20;;;12.30;99.90;;;;;;5062933;28;20103;-77
2021/05/26 06:26:02;;;;;;;6.05;3.00;;;12.30;99.90;;;;;;5056090;28;20023;-81
2021/05/26 06:28:27;;;;;;;6.03;3.30;;;12.30;99.90;;;;;;5060053;28;20037;-79
2021/05/26 06:30:56;;;;;;;7.03;3.75;;;12.40;99.90;;;;;;5059664;28;20033;-79
2021/05/26 06:33:22;;;;;;;5.57;2.90;;;12.40;99.90;;;;;;5058124;28;20032;-78
2021/05/26 06:35:47;;;;;;;6.90;3.50;;;12.50;99.90;;;;;;5061281;28;20028;-76
2021/05/26 06:38:13;;;;;;;7.43;3.83;;;12.50;99.90;;;;;;5056551;28;20043;-77
2021/05/26 06:40:39;;;;;;;4.32;3.08;;;12.50;99.90;;;;;;5063733;28;20482;-77
2021/05/26 06:43:05;;;;;;;5.55;2.55;;;12.50;99.90;;;;;;5062401;28;20161;-76
2021/05/26 06:45:30;;;;;;;5.13;2.78;;;12.50;99.90;;;;;;5065677;28;20483;-77
2021/05/26 06:47:56;;;;;;;2.67;2.38;;;12.60;99.90;;;;;;5058235;28;20565;-77
2021/05/26 06:50:22;;;;;;;5.55;2.55;;;12.60;99.90;;;;;;5056460;28;20113;-77
2021/05/26 06:52:48;;;;;;;5.43;3.05;;;12.60;99.90;;;;;;5058104;28;20385;-76
2021/05/26 06:55:13;;;;;;;4.18;2.88;;;12.60;99.90;;;;;;5058499;28;20020;-79
2021/05/26 06:57:39;;;;;;;6.88;2.78;;;12.60;99.90;;;;;;5058186;28;20025;-77
2021/05/26 07:00:05;;;;;;;3.63;2.70;;;12.70;99.90;;;;;;5062112;28;20020;-75
2021/05/26 07:02:31;;;;;;;2.97;2.13;;;12.80;99.90;;;;;;5056383;28;20035;-77
2021/05/26 07:04:57;;;;;;;4.20;2.80;;;12.90;99.90;;;;;;5061171;28;20064;-78
2021/05/26 07:07:23;;;;;;;5.45;3.55;;;13.00;99.90;;;;;;5063741;28;20503;-77
2021/05/26 07:09:48;;;;;;;7.97;4.75;;;13.10;99.90;;;;;;5054852;28;20017;-78
2021/05/26 07:12:14;;;;;;;5.18;2.60;;;13.00;99.90;;;;;;5055356;28;20033;-78
2021/05/26 07:14:41;;;;;;;14.73;9.23;;;13.20;99.90;;;;;;5061322;28;20031;-78
2021/05/26 07:17:07;;;;;;;6.03;2.67;;;13.20;99.90;;;;;;5059047;28;20115;-73
2021/05/26 07:19:32;;;;;;;3.80;2.30;;;13.30;99.90;;;;;;5058016;28;20099;-70
2021/05/26 07:21:58;;;;;;;5.32;2.15;;;13.20;99.90;;;;;;5060632;28;20100;-77
2021/05/26 07:24:23;;;;;;;5.20;2.00;;;13.20;99.90;;;;;;5055539;28;20040;-77
2021/05/26 07:26:49;;;;;;;2.13;1.80;;;13.10;99.90;;;;;;5061047;28;20020;-78
2021/05/26 07:29:14;;;;;;;2.25;2.05;;;13.20;99.90;;;;;;5056589;28;20075;-73
2021/05/26 07:31:41;;;;;;;2.85;1.58;;;13.20;99.90;;;;;;5053664;28;20047;-72
2021/05/26 07:34:07;;;;;;;1.90;1.50;;;13.20;99.90;;;;;;5066818;28;20103;-75
2021/05/26 07:36:33;;;;;;;4.68;1.98;;;13.20;99.90;;;;;;5062787;28;20075;-73
2021/05/26 07:39:00;;;;;;;1.83;1.20;;;13.30;99.90;;;;;;5057801;28;20035;-73
2021/05/26 07:41:26;;;;;;;3.17;1.58;;;13.30;99.90;;;;;;5064069;28;20059;-76
2021/05/26 07:43:52;;;;;;;1.58;1.27;;;13.30;99.90;;;;;;5061542;28;20033;-76
2021/05/26 07:46:17;;;;;;;2.70;1.10;;;13.20;99.90;;;;;;5059492;28;20025;-75
2021/05/26 07:48:43;;;;;;;4.90;1.63;;;13.30;99.90;;;;;;5054368;28;20029;-72
2021/05/26 07:51:10;;;;;;;2.00;1.58;;;13.30;99.90;;;;;;5054892;28;20115;-74
2021/05/26 07:53:35;;;;;;;4.30;1.50;;;13.40;99.90;;;;;;5056267;28;20021;-73
2021/05/26 07:56:02;;;;;;;5.53;1.75;;;13.40;99.90;;;;;;5055823;28;20369;-71
2021/05/26 07:58:27;;;;;;;6.15;2.67;;;13.50;99.90;;;;;;5056487;28;20516;-71
2021/05/26 08:00:53;;;;;;;4.38;1.95;;;13.70;99.90;;;;;;5053744;28;20049;-72
2021/05/26 08:03:22;;;;;;;3.03;1.30;;;13.80;99.90;;;;;;5057367;28;20141;-81
2021/05/26 08:05:48;;;;;;;1999.90;537.42;;;13.80;99.90;;;;;;5073210;28;20024;-83
2021/05/26 08:08:14;;;;;;;1999.90;999.90;;;13.80;99.90;;;;;;5062019;28;20081;-76
2021/05/26 08:10:40;;;;;;;1999.90;723.17;;;13.80;99.90;;;;;;5057610;28;20036;-76
2021/05/26 08:13:05;;;;;;;1999.90;247.65;;;13.90;99.90;;;;;;5060378;28;20120;-82
2021/05/26 08:15:31;;;;;;;1999.90;278.30;;;14.00;99.90;;;;;;5056030;28;20047;-74
2021/05/26 08:17:56;;;;;;;5.30;1.65;;;14.10;99.90;;;;;;5055962;28;20503;-77
2021/05/26 08:20:22;;;;;;;828.40;95.90;;;14.10;99.90;;;;;;5054227;28;20026;-75
2021/05/26 08:22:49;;;;;;;7.88;2.03;;;14.10;99.90;;;;;;5053138;28;20068;-77
2021/05/26 08:25:16;;;;;;;376.98;38.55;;;14.20;99.90;;;;;;5060670;28;20051;-87
2021/05/26 08:27:41;;;;;;;510.58;58.38;;;14.30;99.90;;;;;;5060422;28;20021;-74
2021/05/26 08:30:08;;;;;;;42.38;5.35;;;14.40;99.90;;;;;;5062613;28;20043;-77
2021/05/26 08:32:34;;;;;;;26.38;3.28;;;14.50;99.90;;;;;;5060213;28;20017;-75
2021/05/26 08:34:59;;;;;;;3.20;1.10;;;14.60;99.90;;;;;;5061071;28;20036;-78
2021/05/26 08:37:25;;;;;;;5.78;1.23;;;14.60;99.90;;;;;;5057504;28;20029;-77
2021/05/26 08:39:51;;;;;;;860.70;91.43;;;14.60;99.90;;;;;;5054309;28;20079;-75
2021/05/26 08:42:17;;;;;;;49.35;6.35;;;14.70;99.90;;;;;;5054998;28;20036;-74
2021/05/26 08:44:43;;;;;;;5.85;1.30;;;14.70;99.90;;;;;;5059120;28;20041;-74
2021/05/26 08:47:16;;;;;;;26.23;4.50;;;14.80;99.90;;;;;;5064257;28;20059;-75
2021/05/26 08:49:47;;;;;;;1673.70;208.23;;;14.70;99.90;;;;;;5061376;28;20485;-71
2021/05/26 08:52:17;;;;;;;43.03;9.05;;;14.80;99.90;;;;;;5060462;28;20447;-69
2021/05/26 08:54:46;;;;;;;74.07;8.55;;;14.80;99.90;;;;;;5056872;28;20366;-75
2021/05/26 08:57:12;;;;;;;1475.30;175.15;;;14.90;99.90;;;;;;5063676;28;20035;-72
2021/05/26 08:59:38;;;;;;;74.45;8.75;;;14.80;99.90;;;;;;5063961;28;20028;-70
2021/05/26 09:02:03;;;;;;;64.38;7.00;;;14.90;99.90;;;;;;5056754;28;20057;-74
2021/05/26 09:04:36;;;;;;;631.78;60.30;;;14.90;99.90;;;;;;5072736;28;20029;-78
2021/05/26 09:07:11;;;;;;;15.10;2.90;;;15.00;99.90;;;;;;5059534;28;20477;-76
2021/05/26 09:09:58;;;;;;;30.52;4.65;;;15.20;99.90;;;;;;5058466;28;20040;-76
2021/05/26 09:12:37;;;;;;;22.38;6.93;;;15.40;99.90;;;;;;5055347;28;20048;-75
2021/05/26 09:15:15;;;;;;;23.38;2.95;;;15.30;99.90;;;;;;5060229;28;20051;-76
2021/05/26 09:17:45;;;;;;;9.15;1.90;;;15.40;99.90;;;;;;5056483;28;20033;-75
2021/05/26 09:20:32;;;;;;;5.68;1.67;;;15.40;99.90;;;;;;5061003;28;20036;-72
2021/05/26 09:23:13;;;;;;;14.90;1.92;;;15.50;99.90;;;;;;5053015;28;20029;-73
2021/05/26 09:25:44;;;;;;;7.90;2.00;;;15.40;99.90;;;;;;5066390;28;20104;-72
2021/05/26 09:28:33;;;;;;;8.18;2.53;;;15.60;99.90;;;;;;5065831;28;20036;-70
2021/05/26 09:31:05;;;;;;;4.88;1.92;;;15.70;99.90;;;;;;5066646;28;20558;-69
2021/05/26 09:33:32;;;;;;;7.85;2.03;;;16.00;99.90;;;;;;5067839;28;20017;-73
2021/05/26 09:36:16;;;;;;;24.33;3.45;;;16.00;99.90;;;;;;5062276;28;20112;-74
2021/05/26 09:38:49;;;;;;;3.33;1.45;;;16.00;99.90;;;;;;5055672;28;20057;-74
2021/05/26 09:41:29;;;;;;;3.13;1.60;;;16.00;99.90;;;;;;5067421;28;20052;-74
2021/05/26 09:43:59;;;;;;;2.42;1.35;;;16.00;99.90;;;;;;5061537;28;20104;-77
2021/05/26 09:46:29;;;;;;;4.03;1.83;;;16.20;99.90;;;;;;5062261;28;20123;-73
2021/05/26 09:49:08;;;;;;;3.08;1.83;;;16.20;99.90;;;;;;5060867;28;20507;-74
2021/05/26 09:51:40;;;;;;;8.77;2.60;;;16.10;99.90;;;;;;5064708;28;20052;-75
2021/05/26 09:54:19;;;;;;;2.72;1.77;;;16.10;99.90;;;;;;5056279;28;20021;-74
2021/05/26 09:56:48;;;;;;;10.52;2.47;;;16.10;99.90;;;;;;5070337;28;20032;-74
2021/05/26 09:59:14;;;;;;;3.67;2.13;;;16.20;99.90;;;;;;5065536;28;20029;-76
2021/05/26 10:01:40;;;;;;;3.72;2.47;;;16.30;99.90;;;;;;5061363;28;20031;-72
2021/05/26 10:04:07;;;;;;;4.07;2.05;;;16.10;99.90;;;;;;5056413;28;20086;-72
2021/05/26 10:06:34;;;;;;;7.18;2.20;;;16.10;99.90;;;;;;5065930;28;20025;-74
2021/05/26 10:09:00;;;;;;;5.88;2.33;;;16.10;99.90;;;;;;5063966;28;20116;-73
2021/05/26 10:11:28;;;;;;;4.90;2.22;;;16.00;99.90;;;;;;5056002;28;20116;-71
2021/05/26 10:13:55;;;;;;;13.75;2.53;;;16.20;99.90;;;;;;5061364;28;20029;-79
2021/05/26 10:16:21;;;;;;;7.78;2.25;;;16.30;99.90;;;;;;5062340;28;20028;-75
2021/05/26 10:18:48;;;;;;;7.38;2.47;;;16.40;99.90;;;;;;5061710;28;20363;-74
2021/05/26 10:21:16;;;;;;;3.90;2.35;;;16.80;99.90;;;;;;5067639;28;20035;-75
2021/05/26 10:23:42;;;;;;;4.93;2.70;;;17.00;99.90;;;;;;5064942;28;20017;-78
2021/05/26 10:26:08;;;;;;;6.00;1.90;;;17.20;99.90;;;;;;5060105;28;20067;-81
2021/05/26 10:28:34;;;;;;;8.00;2.88;;;17.50;99.90;;;;;;5067558;28;20055;-74
2021/05/26 10:31:05;;;;;;;5.20;3.00;;;17.70;99.90;;;;;;5063755;28;20041;-77
2021/05/26 10:33:39;;;;;;;5.60;3.28;;;17.60;99.90;;;;;;5066477;28;20056;-77
2021/05/26 10:36:08;;;;;;;4.45;2.55;;;17.70;99.90;;;;;;5062734;28;20029;-74
2021/05/26 10:38:58;;;;;;;8.63;2.47;;;17.60;99.90;;;;;;5069815;28;20020;-72
2021/05/26 10:41:24;;;;;;;5.85;3.03;;;17.50;99.90;;;;;;5058186;28;20129;-72
2021/05/26 10:43:55;;;;;;;3.88;3.00;;;17.60;99.90;;;;;;5064946;28;20036;-70
2021/05/26 10:46:33;;;;;;;4.50;3.30;;;17.60;99.90;;;;;;5069144;28;20023;-74
2021/05/26 10:48:58;;;;;;;5.05;3.15;;;17.50;99.90;;;;;;5063584;28;20094;-72
2021/05/26 10:51:57;;;;;;;8.15;3.05;;;17.40;99.90;;;;;;5064269;28;20044;-78
2021/05/26 10:54:41;;;;;;;4.85;3.70;;;17.50;99.90;;;;;;5012622;28;20120;-78
2021/05/26 10:57:08;;;;;;;11.90;4.85;;;17.40;99.90;;;;;;5067183;28;20089;-78
2021/05/26 10:59:34;;;;;;;7.38;3.90;;;17.40;99.90;;;;;;5064797;28;20024;-80
2021/05/26 11:02:07;;;;;;;10.93;4.80;;;17.30;99.90;;;;;;5055624;28;20032;-76
2021/05/26 11:04:40;;;;;;;;;;;17.60;99.90;;;;;;5060108;28;20059;-74
2021/05/26 11:07:24;;;;;;;6.60;5.85;;;17.70;99.90;;;;;;5057155;28;19916;-72
2021/05/26 11:10:01;;;;;;;12.10;5.97;;;17.70;99.90;;;;;;5053642;28;20020;-79
2021/05/26 11:12:28;;;;;;;6.30;4.18;;;18.10;99.90;;;;;;5054618;28;20029;-74
2021/05/26 11:14:54;;;;;;;7.38;4.35;;;18.10;99.90;;;;;;5055230;28;20057;-76
2021/05/26 11:17:24;;;;;;;7.15;4.22;;;18.50;99.90;;;;;;5058465;28;20025;-77
2021/05/26 11:19:50;;;;;;;9.10;4.47;;;18.70;99.90;;;;;;5057648;28;20036;-81
2021/05/26 11:22:22;;;;;;;5.75;3.97;;;18.90;99.90;;;;;;5054208;28;20025;-76
2021/05/26 11:24:50;;;;;;;6.07;4.45;;;18.80;99.90;;;;;;5064113;28;20021;-72
2021/05/26 11:27:23;;;;;;;10.05;4.55;;;18.70;99.90;;;;;;5065234;28;20932;-69
2021/05/26 11:29:57;;;;;;;8.77;3.83;;;18.90;99.90;;;;;;5056217;28;20044;-69
2021/05/26 11:32:24;;;;;;;5.72;3.90;;;18.50;99.90;;;;;;5059406;28;20486;-69
2021/05/26 11:34:55;;;;;;;25.42;6.70;;;18.40;99.90;;;;;;5067444;28;20392;-68
2021/05/26 11:37:41;;;;;;;13.95;5.30;;;18.30;99.90;;;;;;5066282;28;20024;-74
2021/05/26 11:40:28;;;;;;;12.70;5.47;;;18.70;99.90;;;;;;5061901;28;20024;-70
2021/05/26 11:42:55;;;;;;;17.40;5.88;;;18.50;99.90;;;;;;5054972;28;20486;-69
2021/05/26 11:45:22;;;;;;;11.48;4.47;;;18.30;99.90;;;;;;5057112;28;20017;-73
2021/05/26 11:47:52;;;;;;;12.05;6.50;;;18.10;99.90;;;;;;5060528;28;20047;-69
2021/05/26 11:50:19;;;;;;;10.90;4.72;;;18.00;99.90;;;;;;5056127;28;20051;-69
2021/05/26 11:52:49;;;;;;;18.20;4.35;;;17.90;99.90;;;;;;5058336;28;20808;-68
2021/05/26 11:55:21;;;;;;;15.25;5.00;;;17.90;99.90;;;;;;5054974;28;20645;-71
2021/05/26 11:57:49;;;;;;;26.52;4.65;;;17.70;99.90;;;;;;5057317;28;20385;-76
2021/05/26 12:00:26;;;;;;;20.88;5.38;;;17.60;99.90;;;;;;5061486;28;20099;-77
2021/05/26 12:03:09;;;;;;;10.13;2.97;;;17.50;99.90;;;;;;5057281;28;20381;-74
2021/05/26 12:05:37;;;;;;;;;;;17.40;99.90;;;;;;5062500;28;20115;-76
2021/05/26 12:08:24;;;;;;;10.00;2.67;;;17.30;99.90;;;;;;5051827;28;20359;-74
2021/05/26 12:11:03;;;;;;;1.50;1.38;;;17.20;99.90;;;;;;5046403;28;20109;-70
2021/05/26 12:13:34;;;;;;;4.57;1.60;;;17.20;99.90;;;;;;5063698;28;20393;-72
2021/05/26 12:16:04;;;;;;;6.78;1.85;;;17.20;99.90;;;;;;5060949;28;20031;-73
2021/05/26 12:18:30;;;;;;;11.35;2.70;;;17.30;99.90;;;;;;5057034;28;20056;-70
2021/05/26 12:20:57;;;;;;;7.68;2.33;;;17.30;99.90;;;;;;5058651;28;20394;-72
2021/05/26 12:23:33;;;;;;;21.30;3.60;;;17.40;99.90;;;;;;5058266;28;20108;-75
2021/05/26 12:25:59;;;;;;;12.88;3.90;;;17.60;99.90;;;;;;5059234;28;20043;-78
2021/05/26 12:28:28;;;;;;;10.13;3.70;;;17.80;99.90;;;;;;5064121;28;20024;-73
2021/05/26 12:30:54;;;;;;;9.75;5.05;;;17.80;99.90;;;;;;5061068;28;20089;-77
2021/05/26 12:33:22;;;;;;;10.63;4.97;;;17.60;99.90;;;;;;5052684;28;20059;-74
2021/05/26 12:36:04;;;;;;;6.55;4.22;;;17.50;99.90;;;;;;5063931;28;20036;-76
2021/05/26 12:38:37;;;;;;;12.77;6.63;;;17.30;99.90;;;;;;5055963;28;20028;-75
2021/05/26 12:41:34;;;;;;;14.48;8.75;;;17.00;99.90;;;;;;5064881;28;20789;-74
2021/05/26 12:44:08;;;;;;;11.63;7.43;;;16.90;99.90;;;;;;5063546;28;20064;-76